Hebron, Canada
Current Conditions -  °F | °C
As of 1:00 AM on Tuesday 21 Oct 2014 (Local Time) from CYQI Reporting Station
Clear Clear  
Wind Chill: 43°   Ceiling: Unl
Heat Index: 46°   Visibility: 15mi
Dew Point: 37°   Wind: 7mph
Humidity: 71%   Direction: 270°W
Pressure: 30.03"   Gusts: NA
Location:  43.88°N, 66.08°W
Report Text: CYQI 210400Z 27006KT 15SM SKC 08/03 A3003 RMK SLP170
Loading
Personal Weather Stations






























Interactive Weather Map
Tropical Storm Tracking
New forecast layout! Learn more

10-Day Weather Forecast

Advertisements
Track Severe Weather on mobile